sensor_id;sensor_type;location;lat;lon;timestamp;P1;durP1;ratioP1;P2;durP2;ratioP2
19940;SDS011;10132;50.864;5.176;2023-10-09T00:00:17;10.17;;;5.40;;
19940;SDS011;10132;50.864;5.176;2023-10-09T00:02:36;7.70;;;5.73;;
19940;SDS011;10132;50.864;5.176;2023-10-09T00:04:44;10.93;;;5.50;;
19940;SDS011;10132;50.864;5.176;2023-10-09T00:06:46;15.60;;;6.17;;
19940;SDS011;10132;50.864;5.176;2023-10-09T00:08:49;11.27;;;5.47;;
19940;SDS011;10132;50.864;5.176;2023-10-09T00:10:54;10.30;;;5.10;;
19940;SDS011;10132;50.864;5.176;2023-10-09T00:12:57;10.50;;;6.00;;
19940;SDS011;10132;50.864;5.176;2023-10-09T00:14:58;11.87;;;5.30;;
19940;SDS011;10132;50.864;5.176;2023-10-09T00:17:10;11.00;;;5.83;;
19940;SDS011;10132;50.864;5.176;2023-10-09T00:19:18;11.97;;;5.83;;
19940;SDS011;10132;50.864;5.176;2023-10-09T00:21:22;11.03;;;4.70;;
19940;SDS011;10132;50.864;5.176;2023-10-09T00:23:27;8.70;;;5.87;;
19940;SDS011;10132;50.864;5.176;2023-10-09T00:25:32;11.37;;;5.27;;
19940;SDS011;10132;50.864;5.176;2023-10-09T00:27:37;7.93;;;5.70;;
19940;SDS011;10132;50.864;5.176;2023-10-09T00:29:41;9.43;;;5.87;;
19940;SDS011;10132;50.864;5.176;2023-10-09T00:31:45;11.50;;;5.87;;
19940;SDS011;10132;50.864;5.176;2023-10-09T00:33:50;15.80;;;6.17;;
19940;SDS011;10132;50.864;5.176;2023-10-09T00:35:52;9.77;;;4.90;;
19940;SDS011;10132;50.864;5.176;2023-10-09T00:37:55;10.73;;;5.90;;
19940;SDS011;10132;50.864;5.176;2023-10-09T00:40:01;9.10;;;5.90;;
19940;SDS011;10132;50.864;5.176;2023-10-09T00:42:12;9.83;;;6.17;;
19940;SDS011;10132;50.864;5.176;2023-10-09T00:44:22;10.47;;;5.63;;
19940;SDS011;10132;50.864;5.176;2023-10-09T00:46:26;10.37;;;5.70;;
19940;SDS011;10132;50.864;5.176;2023-10-09T00:48:28;11.93;;;5.43;;
19940;SDS011;10132;50.864;5.176;2023-10-09T00:50:31;13.90;;;6.07;;
19940;SDS011;10132;50.864;5.176;2023-10-09T00:52:36;11.33;;;6.13;;
19940;SDS011;10132;50.864;5.176;2023-10-09T00:54:45;8.93;;;5.77;;
19940;SDS011;10132;50.864;5.176;2023-10-09T00:56:51;12.60;;;6.33;;
19940;SDS011;10132;50.864;5.176;2023-10-09T00:58:59;8.67;;;5.80;;
19940;SDS011;10132;50.864;5.176;2023-10-09T01:01:08;13.03;;;6.77;;
19940;SDS011;10132;50.864;5.176;2023-10-09T01:03:16;12.27;;;6.50;;
19940;SDS011;10132;50.864;5.176;2023-10-09T01:05:22;10.23;;;6.20;;
19940;SDS011;10132;50.864;5.176;2023-10-09T01:07:27;10.17;;;6.30;;
19940;SDS011;10132;50.864;5.176;2023-10-09T01:09:29;8.43;;;6.13;;
19940;SDS011;10132;50.864;5.176;2023-10-09T01:11:38;8.37;;;6.50;;
19940;SDS011;10132;50.864;5.176;2023-10-09T01:13:48;10.93;;;5.83;;
19940;SDS011;10132;50.864;5.176;2023-10-09T01:15:56;11.03;;;6.03;;
19940;SDS011;10132;50.864;5.176;2023-10-09T01:17:58;10.73;;;6.77;;
19940;SDS011;10132;50.864;5.176;2023-10-09T01:20:00;9.83;;;6.80;;
19940;SDS011;10132;50.864;5.176;2023-10-09T01:22:06;10.63;;;6.47;;
19940;SDS011;10132;50.864;5.176;2023-10-09T01:24:16;9.37;;;7.37;;
19940;SDS011;10132;50.864;5.176;2023-10-09T01:26:20;12.13;;;6.63;;
19940;SDS011;10132;50.864;5.176;2023-10-09T01:28:22;13.33;;;6.93;;
19940;SDS011;10132;50.864;5.176;2023-10-09T01:30:26;10.80;;;6.60;;
19940;SDS011;10132;50.864;5.176;2023-10-09T01:32:28;8.73;;;6.07;;
19940;SDS011;10132;50.864;5.176;2023-10-09T01:34:30;12.50;;;7.33;;
19940;SDS011;10132;50.864;5.176;2023-10-09T01:36:41;8.90;;;6.60;;
19940;SDS011;10132;50.864;5.176;2023-10-09T01:38:43;14.35;;;6.95;;
19940;SDS011;10132;50.864;5.176;2023-10-09T01:40:46;10.07;;;6.83;;
19940;SDS011;10132;50.864;5.176;2023-10-09T01:42:51;13.13;;;7.23;;
19940;SDS011;10132;50.864;5.176;2023-10-09T01:44:54;11.10;;;6.60;;
19940;SDS011;10132;50.864;5.176;2023-10-09T01:46:58;9.43;;;6.57;;
19940;SDS011;10132;50.864;5.176;2023-10-09T01:49:00;12.13;;;6.87;;
19940;SDS011;10132;50.864;5.176;2023-10-09T01:51:13;8.37;;;6.50;;
19940;SDS011;10132;50.864;5.176;2023-10-09T01:53:17;11.73;;;6.90;;
19940;SDS011;10132;50.864;5.176;2023-10-09T01:55:27;10.83;;;6.77;;
19940;SDS011;10132;50.864;5.176;2023-10-09T01:57:34;10.53;;;6.87;;
19940;SDS011;10132;50.864;5.176;2023-10-09T01:59:39;10.17;;;6.80;;
19940;SDS011;10132;50.864;5.176;2023-10-09T02:01:44;11.93;;;7.20;;
19940;SDS011;10132;50.864;5.176;2023-10-09T02:03:48;10.80;;;6.97;;
19940;SDS011;10132;50.864;5.176;2023-10-09T02:05:51;10.07;;;6.20;;
19940;SDS011;10132;50.864;5.176;2023-10-09T02:07:53;10.83;;;7.23;;
19940;SDS011;10132;50.864;5.176;2023-10-09T02:09:58;9.97;;;6.40;;
19940;SDS011;10132;50.864;5.176;2023-10-09T02:12:00;11.90;;;7.33;;
19940;SDS011;10132;50.864;5.176;2023-10-09T02:14:04;15.03;;;7.10;;
19940;SDS011;10132;50.864;5.176;2023-10-09T02:16:19;10.70;;;7.40;;
19940;SDS011;10132;50.864;5.176;2023-10-09T02:18:28;10.93;;;7.50;;
19940;SDS011;10132;50.864;5.176;2023-10-09T02:20:53;13.97;;;7.30;;
19940;SDS011;10132;50.864;5.176;2023-10-09T02:23:12;11.73;;;7.77;;
19940;SDS011;10132;50.864;5.176;2023-10-09T02:25:15;12.53;;;7.23;;
19940;SDS011;10132;50.864;5.176;2023-10-09T02:27:21;10.87;;;6.73;;
19940;SDS011;10132;50.864;5.176;2023-10-09T02:29:38;11.10;;;7.50;;
19940;SDS011;10132;50.864;5.176;2023-10-09T02:31:42;11.57;;;6.53;;
19940;SDS011;10132;50.864;5.176;2023-10-09T02:33:47;15.07;;;7.60;;
19940;SDS011;10132;50.864;5.176;2023-10-09T02:35:53;9.37;;;6.50;;
19940;SDS011;10132;50.864;5.176;2023-10-09T02:37:59;12.20;;;7.60;;
19940;SDS011;10132;50.864;5.176;2023-10-09T02:40:04;10.63;;;7.50;;
19940;SDS011;10132;50.864;5.176;2023-10-09T02:42:08;9.13;;;6.70;;
19940;SDS011;10132;50.864;5.176;2023-10-09T02:44:23;12.70;;;7.20;;
19940;SDS011;10132;50.864;5.176;2023-10-09T02:46:33;11.80;;;7.30;;
19940;SDS011;10132;50.864;5.176;2023-10-09T02:48:35;11.40;;;7.40;;
19940;SDS011;10132;50.864;5.176;2023-10-09T02:50:36;12.30;;;6.73;;
19940;SDS011;10132;50.864;5.176;2023-10-09T02:52:39;9.37;;;6.83;;
19940;SDS011;10132;50.864;5.176;2023-10-09T02:54:42;11.13;;;7.30;;
19940;SDS011;10132;50.864;5.176;2023-10-09T02:56:47;12.90;;;7.73;;
19940;SDS011;10132;50.864;5.176;2023-10-09T02:58:56;10.90;;;7.60;;
19940;SDS011;10132;50.864;5.176;2023-10-09T03:01:09;10.30;;;7.70;;
19940;SDS011;10132;50.864;5.176;2023-10-09T03:03:14;11.13;;;6.80;;
19940;SDS011;10132;50.864;5.176;2023-10-09T03:05:18;12.27;;;8.13;;
19940;SDS011;10132;50.864;5.176;2023-10-09T03:07:20;10.07;;;7.23;;
19940;SDS011;10132;50.864;5.176;2023-10-09T03:09:24;10.00;;;6.67;;
19940;SDS011;10132;50.864;5.176;2023-10-09T03:11:30;12.37;;;7.40;;
19940;SDS011;10132;50.864;5.176;2023-10-09T03:13:32;12.60;;;7.33;;
19940;SDS011;10132;50.864;5.176;2023-10-09T03:15:34;12.70;;;7.50;;
19940;SDS011;10132;50.864;5.176;2023-10-09T03:17:36;9.87;;;7.40;;
19940;SDS011;10132;50.864;5.176;2023-10-09T03:19:40;12.23;;;7.57;;
19940;SDS011;10132;50.864;5.176;2023-10-09T03:21:43;10.30;;;7.63;;
19940;SDS011;10132;50.864;5.176;2023-10-09T03:23:47;12.47;;;7.63;;
19940;SDS011;10132;50.864;5.176;2023-10-09T03:25:50;12.07;;;7.50;;
19940;SDS011;10132;50.864;5.176;2023-10-09T03:27:52;10.43;;;7.87;;
19940;SDS011;10132;50.864;5.176;2023-10-09T03:29:56;12.63;;;7.90;;
19940;SDS011;10132;50.864;5.176;2023-10-09T03:31:58;10.07;;;7.67;;
19940;SDS011;10132;50.864;5.176;2023-10-09T03:34:00;12.17;;;7.37;;
19940;SDS011;10132;50.864;5.176;2023-10-09T03:36:04;14.50;;;8.07;;
19940;SDS011;10132;50.864;5.176;2023-10-09T03:38:09;10.53;;;7.50;;
19940;SDS011;10132;50.864;5.176;2023-10-09T03:40:12;11.67;;;7.27;;
19940;SDS011;10132;50.864;5.176;2023-10-09T03:42:17;10.97;;;7.70;;
19940;SDS011;10132;50.864;5.176;2023-10-09T03:44:20;11.63;;;7.90;;
19940;SDS011;10132;50.864;5.176;2023-10-09T03:46:22;13.27;;;7.67;;
19940;SDS011;10132;50.864;5.176;2023-10-09T03:48:32;10.30;;;7.43;;
19940;SDS011;10132;50.864;5.176;2023-10-09T03:50:36;12.90;;;7.37;;
19940;SDS011;10132;50.864;5.176;2023-10-09T03:52:39;10.60;;;7.97;;
19940;SDS011;10132;50.864;5.176;2023-10-09T03:54:41;9.73;;;7.17;;
19940;SDS011;10132;50.864;5.176;2023-10-09T03:56:44;11.30;;;8.43;;
19940;SDS011;10132;50.864;5.176;2023-10-09T03:58:51;11.77;;;7.77;;
19940;SDS011;10132;50.864;5.176;2023-10-09T04:00:54;13.63;;;8.50;;
19940;SDS011;10132;50.864;5.176;2023-10-09T04:02:57;10.80;;;6.95;;
19940;SDS011;10132;50.864;5.176;2023-10-09T04:04:58;12.00;;;7.63;;
19940;SDS011;10132;50.864;5.176;2023-10-09T04:07:00;16.75;;;8.00;;
19940;SDS011;10132;50.864;5.176;2023-10-09T04:09:04;11.83;;;8.30;;
19940;SDS011;10132;50.864;5.176;2023-10-09T04:11:27;9.93;;;7.90;;
19940;SDS011;10132;50.864;5.176;2023-10-09T04:13:31;11.90;;;7.90;;
19940;SDS011;10132;50.864;5.176;2023-10-09T04:15:35;12.93;;;8.53;;
19940;SDS011;10132;50.864;5.176;2023-10-09T04:17:37;13.97;;;8.90;;
19940;SDS011;10132;50.864;5.176;2023-10-09T04:19:43;13.57;;;8.37;;
19940;SDS011;10132;50.864;5.176;2023-10-09T04:22:09;13.37;;;8.87;;
19940;SDS011;10132;50.864;5.176;2023-10-09T04:24:28;12.07;;;7.83;;
19940;SDS011;10132;50.864;5.176;2023-10-09T04:26:41;13.77;;;8.73;;
19940;SDS011;10132;50.864;5.176;2023-10-09T04:28:44;15.83;;;8.23;;
19940;SDS011;10132;50.864;5.176;2023-10-09T04:30:51;11.57;;;8.47;;
19940;SDS011;10132;50.864;5.176;2023-10-09T04:32:55;11.87;;;8.60;;
19940;SDS011;10132;50.864;5.176;2023-10-09T04:35:00;12.73;;;8.53;;
19940;SDS011;10132;50.864;5.176;2023-10-09T04:37:16;10.40;;;8.23;;
19940;SDS011;10132;50.864;5.176;2023-10-09T04:39:38;10.70;;;7.97;;
19940;SDS011;10132;50.864;5.176;2023-10-09T04:41:46;12.63;;;8.07;;
19940;SDS011;10132;50.864;5.176;2023-10-09T04:44:14;12.90;;;8.33;;
19940;SDS011;10132;50.864;5.176;2023-10-09T04:46:19;11.97;;;8.03;;
19940;SDS011;10132;50.864;5.176;2023-10-09T04:48:23;10.67;;;8.30;;
19940;SDS011;10132;50.864;5.176;2023-10-09T04:50:32;13.23;;;7.90;;
19940;SDS011;10132;50.864;5.176;2023-10-09T04:52:45;11.77;;;8.30;;
19940;SDS011;10132;50.864;5.176;2023-10-09T04:54:54;10.70;;;7.80;;
19940;SDS011;10132;50.864;5.176;2023-10-09T04:57:15;12.70;;;8.13;;
19940;SDS011;10132;50.864;5.176;2023-10-09T04:59:18;14.07;;;8.17;;
19940;SDS011;10132;50.864;5.176;2023-10-09T05:01:24;14.93;;;8.67;;
19940;SDS011;10132;50.864;5.176;2023-10-09T05:03:36;10.90;;;8.00;;
19940;SDS011;10132;50.864;5.176;2023-10-09T05:05:56;12.57;;;8.07;;
19940;SDS011;10132;50.864;5.176;2023-10-09T05:08:20;14.13;;;8.23;;
19940;SDS011;10132;50.864;5.176;2023-10-09T05:10:23;14.47;;;7.80;;
19940;SDS011;10132;50.864;5.176;2023-10-09T05:12:25;15.13;;;8.67;;
19940;SDS011;10132;50.864;5.176;2023-10-09T05:14:29;13.60;;;7.83;;
19940;SDS011;10132;50.864;5.176;2023-10-09T05:16:39;12.43;;;7.40;;
19940;SDS011;10132;50.864;5.176;2023-10-09T05:18:54;12.37;;;8.17;;
19940;SDS011;10132;50.864;5.176;2023-10-09T05:20:56;12.23;;;8.03;;
19940;SDS011;10132;50.864;5.176;2023-10-09T05:23:18;15.13;;;8.27;;
19940;SDS011;10132;50.864;5.176;2023-10-09T05:25:29;12.97;;;8.53;;
19940;SDS011;10132;50.864;5.176;2023-10-09T05:27:48;11.63;;;8.07;;
19940;SDS011;10132;50.864;5.176;2023-10-09T05:30:12;12.40;;;8.43;;
19940;SDS011;10132;50.864;5.176;2023-10-09T05:32:24;13.30;;;8.33;;
19940;SDS011;10132;50.864;5.176;2023-10-09T05:34:35;12.10;;;8.53;;
19940;SDS011;10132;50.864;5.176;2023-10-09T05:36:56;12.73;;;8.63;;
19940;SDS011;10132;50.864;5.176;2023-10-09T05:39:11;11.93;;;8.43;;
19940;SDS011;10132;50.864;5.176;2023-10-09T05:41:23;10.43;;;7.47;;
19940;SDS011;10132;50.864;5.176;2023-10-09T05:43:42;14.53;;;8.00;;
19940;SDS011;10132;50.864;5.176;2023-10-09T05:46:02;13.60;;;8.50;;
19940;SDS011;10132;50.864;5.176;2023-10-09T05:48:09;12.37;;;8.53;;
19940;SDS011;10132;50.864;5.176;2023-10-09T05:50:29;16.67;;;8.67;;
19940;SDS011;10132;50.864;5.176;2023-10-09T05:52:38;14.23;;;8.93;;
19940;SDS011;10132;50.864;5.176;2023-10-09T05:54:57;14.57;;;8.97;;
19940;SDS011;10132;50.864;5.176;2023-10-09T05:57:26;13.27;;;8.37;;
19940;SDS011;10132;50.864;5.176;2023-10-09T05:59:45;12.37;;;8.60;;
19940;SDS011;10132;50.864;5.176;2023-10-09T06:02:04;13.10;;;8.13;;
19940;SDS011;10132;50.864;5.176;2023-10-09T06:04:32;14.50;;;9.00;;
19940;SDS011;10132;50.864;5.176;2023-10-09T06:06:49;13.13;;;8.97;;
19940;SDS011;10132;50.864;5.176;2023-10-09T06:08:56;14.07;;;8.97;;
19940;SDS011;10132;50.864;5.176;2023-10-09T06:11:12;14.83;;;8.57;;
19940;SDS011;10132;50.864;5.176;2023-10-09T06:13:30;14.83;;;8.80;;
19940;SDS011;10132;50.864;5.176;2023-10-09T06:15:45;11.70;;;8.83;;
19940;SDS011;10132;50.864;5.176;2023-10-09T06:18:09;13.50;;;9.53;;
19940;SDS011;10132;50.864;5.176;2023-10-09T06:20:25;14.93;;;9.10;;
19940;SDS011;10132;50.864;5.176;2023-10-09T06:23:11;15.47;;;8.70;;
19940;SDS011;10132;50.864;5.176;2023-10-09T06:25:23;13.27;;;8.83;;
19940;SDS011;10132;50.864;5.176;2023-10-09T06:27:32;13.77;;;8.90;;
19940;SDS011;10132;50.864;5.176;2023-10-09T06:29:58;12.53;;;9.33;;
19940;SDS011;10132;50.864;5.176;2023-10-09T06:32:15;12.07;;;8.97;;
19940;SDS011;10132;50.864;5.176;2023-10-09T06:34:34;12.80;;;8.53;;
19940;SDS011;10132;50.864;5.176;2023-10-09T06:36:35;16.60;;;9.37;;
19940;SDS011;10132;50.864;5.176;2023-10-09T06:38:46;13.57;;;8.57;;
19940;SDS011;10132;50.864;5.176;2023-10-09T06:41:12;14.00;;;9.00;;
19940;SDS011;10132;50.864;5.176;2023-10-09T06:43:34;17.30;;;9.87;;
19940;SDS011;10132;50.864;5.176;2023-10-09T06:45:49;16.00;;;9.63;;
19940;SDS011;10132;50.864;5.176;2023-10-09T06:47:54;15.27;;;9.63;;
19940;SDS011;10132;50.864;5.176;2023-10-09T06:50:07;13.27;;;9.23;;
19940;SDS011;10132;50.864;5.176;2023-10-09T06:52:24;14.70;;;9.93;;
19940;SDS011;10132;50.864;5.176;2023-10-09T06:54:46;12.03;;;9.00;;
19940;SDS011;10132;50.864;5.176;2023-10-09T06:56:50;15.13;;;9.70;;
19940;SDS011;10132;50.864;5.176;2023-10-09T06:59:10;13.50;;;9.30;;
19940;SDS011;10132;50.864;5.176;2023-10-09T07:01:18;13.73;;;9.23;;
19940;SDS011;10132;50.864;5.176;2023-10-09T07:03:42;13.73;;;8.90;;
19940;SDS011;10132;50.864;5.176;2023-10-09T07:06:02;13.60;;;9.17;;
19940;SDS011;10132;50.864;5.176;2023-10-09T07:08:05;18.23;;;9.57;;
19940;SDS011;10132;50.864;5.176;2023-10-09T07:10:32;15.60;;;9.57;;
19940;SDS011;10132;50.864;5.176;2023-10-09T07:12:39;13.50;;;9.43;;
19940;SDS011;10132;50.864;5.176;2023-10-09T07:14:44;11.85;;;8.70;;
19940;SDS011;10132;50.864;5.176;2023-10-09T07:17:35;12.38;;;8.52;;
19940;SDS011;10132;50.864;5.176;2023-10-09T07:19:45;16.40;;;9.38;;
19940;SDS011;10132;50.864;5.176;2023-10-09T07:22:08;13.50;;;9.93;;
19940;SDS011;10132;50.864;5.176;2023-10-09T07:24:23;13.68;;;9.02;;
19940;SDS011;10132;50.864;5.176;2023-10-09T07:26:38;17.20;;;9.60;;
19940;SDS011;10132;50.864;5.176;2023-10-09T07:28:47;15.45;;;9.90;;
19940;SDS011;10132;50.864;5.176;2023-10-09T07:31:01;15.18;;;9.82;;
19940;SDS011;10132;50.864;5.176;2023-10-09T07:33:04;15.10;;;9.07;;
19940;SDS011;10132;50.864;5.176;2023-10-09T07:35:16;14.20;;;9.23;;
19940;SDS011;10132;50.864;5.176;2023-10-09T07:37:37;15.60;;;9.53;;
19940;SDS011;10132;50.864;5.176;2023-10-09T07:39:42;14.03;;;9.50;;
19940;SDS011;10132;50.864;5.176;2023-10-09T07:41:50;16.73;;;10.13;;
19940;SDS011;10132;50.864;5.176;2023-10-09T07:44:01;15.52;;;10.25;;
19940;SDS011;10132;50.864;5.176;2023-10-09T07:46:19;17.08;;;10.55;;
19940;SDS011;10132;50.864;5.176;2023-10-09T07:48:34;18.73;;;10.57;;
19940;SDS011;10132;50.864;5.176;2023-10-09T07:50:48;18.13;;;9.60;;
19940;SDS011;10132;50.864;5.176;2023-10-09T07:52:57;15.40;;;9.40;;
19940;SDS011;10132;50.864;5.176;2023-10-09T07:55:15;18.87;;;10.50;;
19940;SDS011;10132;50.864;5.176;2023-10-09T07:57:29;13.65;;;9.07;;
19940;SDS011;10132;50.864;5.176;2023-10-09T07:59:39;15.57;;;9.55;;
19940;SDS011;10132;50.864;5.176;2023-10-09T08:01:54;15.73;;;9.52;;
19940;SDS011;10132;50.864;5.176;2023-10-09T08:04:00;15.38;;;10.00;;
19940;SDS011;10132;50.864;5.176;2023-10-09T08:06:11;19.15;;;11.35;;
19940;SDS011;10132;50.864;5.176;2023-10-09T08:08:30;15.73;;;10.05;;
19940;SDS011;10132;50.864;5.176;2023-10-09T08:10:55;15.98;;;9.85;;
19940;SDS011;10132;50.864;5.176;2023-10-09T08:13:14;16.92;;;9.88;;
19940;SDS011;10132;50.864;5.176;2023-10-09T08:15:35;16.70;;;9.63;;
19940;SDS011;10132;50.864;5.176;2023-10-09T08:17:51;17.08;;;10.23;;
19940;SDS011;10132;50.864;5.176;2023-10-09T08:19:55;18.73;;;10.25;;
19940;SDS011;10132;50.864;5.176;2023-10-09T08:21:58;15.50;;;9.68;;
19940;SDS011;10132;50.864;5.176;2023-10-09T08:24:17;18.00;;;9.98;;
19940;SDS011;10132;50.864;5.176;2023-10-09T08:26:33;14.05;;;9.48;;
19940;SDS011;10132;50.864;5.176;2023-10-09T08:28:47;15.38;;;9.68;;
19940;SDS011;10132;50.864;5.176;2023-10-09T08:30:49;18.20;;;10.32;;
19940;SDS011;10132;50.864;5.176;2023-10-09T08:33:03;12.50;;;9.82;;
19940;SDS011;10132;50.864;5.176;2023-10-09T08:35:26;17.15;;;10.75;;
19940;SDS011;10132;50.864;5.176;2023-10-09T08:37:32;16.67;;;10.40;;
19940;SDS011;10132;50.864;5.176;2023-10-09T08:39:33;15.35;;;10.30;;
19940;SDS011;10132;50.864;5.176;2023-10-09T08:41:36;17.17;;;10.63;;
19940;SDS011;10132;50.864;5.176;2023-10-09T08:43:39;15.05;;;10.18;;
19940;SDS011;10132;50.864;5.176;2023-10-09T08:45:45;14.43;;;10.05;;
19940;SDS011;10132;50.864;5.176;2023-10-09T08:47:47;15.77;;;9.63;;
19940;SDS011;10132;50.864;5.176;2023-10-09T08:49:49;16.70;;;10.10;;
19940;SDS011;10132;50.864;5.176;2023-10-09T08:51:53;19.00;;;10.55;;
19940;SDS011;10132;50.864;5.176;2023-10-09T08:53:55;13.32;;;9.82;;
19940;SDS011;10132;50.864;5.176;2023-10-09T08:55:56;16.85;;;10.05;;
19940;SDS011;10132;50.864;5.176;2023-10-09T08:57:58;14.15;;;9.65;;
19940;SDS011;10132;50.864;5.176;2023-10-09T09:00:01;14.98;;;9.90;;
19940;SDS011;10132;50.864;5.176;2023-10-09T09:02:09;18.95;;;10.35;;
19940;SDS011;10132;50.864;5.176;2023-10-09T09:04:11;16.00;;;9.93;;
19940;SDS011;10132;50.864;5.176;2023-10-09T09:06:36;18.30;;;9.45;;
19940;SDS011;10132;50.864;5.176;2023-10-09T09:08:42;14.90;;;9.25;;
19940;SDS011;10132;50.864;5.176;2023-10-09T09:10:45;18.60;;;9.57;;
19940;SDS011;10132;50.864;5.176;2023-10-09T09:12:48;15.55;;;9.00;;
19940;SDS011;10132;50.864;5.176;2023-10-09T09:14:53;14.13;;;9.25;;
19940;SDS011;10132;50.864;5.176;2023-10-09T09:16:58;15.38;;;9.10;;
19940;SDS011;10132;50.864;5.176;2023-10-09T09:19:04;16.08;;;9.23;;
19940;SDS011;10132;50.864;5.176;2023-10-09T09:21:17;13.43;;;9.18;;
19940;SDS011;10132;50.864;5.176;2023-10-09T09:23:22;15.05;;;9.20;;
19940;SDS011;10132;50.864;5.176;2023-10-09T09:25:39;13.95;;;8.40;;
19940;SDS011;10132;50.864;5.176;2023-10-09T09:27:44;12.88;;;8.93;;
19940;SDS011;10132;50.864;5.176;2023-10-09T09:29:52;13.95;;;8.48;;
19940;SDS011;10132;50.864;5.176;2023-10-09T09:31:55;18.08;;;8.48;;
19940;SDS011;10132;50.864;5.176;2023-10-09T09:34:06;13.40;;;8.80;;
19940;SDS011;10132;50.864;5.176;2023-10-09T09:36:16;13.43;;;8.77;;
19940;SDS011;10132;50.864;5.176;2023-10-09T09:38:19;11.55;;;8.05;;
19940;SDS011;10132;50.864;5.176;2023-10-09T09:40:22;12.48;;;8.35;;
19940;SDS011;10132;50.864;5.176;2023-10-09T09:42:32;12.38;;;8.50;;
19940;SDS011;10132;50.864;5.176;2023-10-09T09:44:35;14.13;;;8.93;;
19940;SDS011;10132;50.864;5.176;2023-10-09T09:46:43;16.05;;;8.32;;
19940;SDS011;10132;50.864;5.176;2023-10-09T09:48:46;13.43;;;8.27;;
19940;SDS011;10132;50.864;5.176;2023-10-09T09:50:52;13.30;;;8.05;;
19940;SDS011;10132;50.864;5.176;2023-10-09T09:52:54;13.35;;;7.93;;
19940;SDS011;10132;50.864;5.176;2023-10-09T09:54:56;11.38;;;7.78;;
19940;SDS011;10132;50.864;5.176;2023-10-09T09:56:58;13.50;;;7.82;;
19940;SDS011;10132;50.864;5.176;2023-10-09T09:59:10;14.13;;;8.32;;
19940;SDS011;10132;50.864;5.176;2023-10-09T10:01:22;14.60;;;7.90;;
19940;SDS011;10132;50.864;5.176;2023-10-09T10:03:34;15.70;;;8.05;;
19940;SDS011;10132;50.864;5.176;2023-10-09T10:05:39;13.98;;;8.40;;
19940;SDS011;10132;50.864;5.176;2023-10-09T10:07:42;13.93;;;8.23;;
19940;SDS011;10132;50.864;5.176;2023-10-09T10:09:49;12.05;;;7.80;;
19940;SDS011;10132;50.864;5.176;2023-10-09T10:11:54;15.43;;;9.10;;
19940;SDS011;10132;50.864;5.176;2023-10-09T10:14:04;13.27;;;7.72;;
19940;SDS011;10132;50.864;5.176;2023-10-09T10:16:09;11.80;;;7.68;;
19940;SDS011;10132;50.864;5.176;2023-10-09T10:18:20;15.75;;;8.15;;
19940;SDS011;10132;50.864;5.176;2023-10-09T10:20:23;15.00;;;8.18;;
19940;SDS011;10132;50.864;5.176;2023-10-09T10:22:31;12.57;;;7.82;;
19940;SDS011;10132;50.864;5.176;2023-10-09T10:24:42;13.75;;;8.38;;
19940;SDS011;10132;50.864;5.176;2023-10-09T10:29:24;17.33;;;7.97;;
19940;SDS011;10132;50.864;5.176;2023-10-09T10:34:05;14.30;;;7.18;;
19940;SDS011;10132;50.864;5.176;2023-10-09T10:36:10;17.60;;;7.43;;
19940;SDS011;10132;50.864;5.176;2023-10-09T10:38:29;14.70;;;7.22;;
19940;SDS011;10132;50.864;5.176;2023-10-09T10:40:36;13.18;;;6.05;;
19940;SDS011;10132;50.864;5.176;2023-10-09T10:42:49;15.27;;;6.95;;
19940;SDS011;10132;50.864;5.176;2023-10-09T10:45:17;11.68;;;7.00;;
19940;SDS011;10132;50.864;5.176;2023-10-09T10:47:35;14.68;;;6.70;;
19940;SDS011;10132;50.864;5.176;2023-10-09T10:49:42;14.30;;;7.32;;
19940;SDS011;10132;50.864;5.176;2023-10-09T10:51:49;14.63;;;7.35;;
19940;SDS011;10132;50.864;5.176;2023-10-09T10:54:01;11.13;;;6.22;;
19940;SDS011;10132;50.864;5.176;2023-10-09T10:56:26;13.20;;;7.28;;
19940;SDS011;10132;50.864;5.176;2023-10-09T10:58:35;12.05;;;7.10;;
19940;SDS011;10132;50.864;5.176;2023-10-09T11:00:51;9.80;;;6.43;;
19940;SDS011;10132;50.864;5.176;2023-10-09T11:03:18;11.35;;;6.38;;
19940;SDS011;10132;50.864;5.176;2023-10-09T11:05:25;11.65;;;6.90;;
19940;SDS011;10132;50.864;5.176;2023-10-09T11:07:26;12.13;;;7.18;;
19940;SDS011;10132;50.864;5.176;2023-10-09T11:09:28;9.50;;;6.40;;
19940;SDS011;10132;50.864;5.176;2023-10-09T11:11:36;13.30;;;7.63;;
19940;SDS011;10132;50.864;5.176;2023-10-09T11:13:47;11.43;;;7.03;;
19940;SDS011;10132;50.864;5.176;2023-10-09T11:15:58;14.30;;;6.78;;
19940;SDS011;10132;50.864;5.176;2023-10-09T11:18:15;14.43;;;6.90;;
19940;SDS011;10132;50.864;5.176;2023-10-09T11:20:22;16.00;;;7.07;;
19940;SDS011;10132;50.864;5.176;2023-10-09T11:22:26;10.90;;;6.88;;
19940;SDS011;10132;50.864;5.176;2023-10-09T11:24:29;11.80;;;7.20;;
19940;SDS011;10132;50.864;5.176;2023-10-09T11:26:34;15.50;;;7.32;;
19940;SDS011;10132;50.864;5.176;2023-10-09T11:28:40;12.88;;;6.93;;
19940;SDS011;10132;50.864;5.176;2023-10-09T11:30:48;10.38;;;6.53;;
19940;SDS011;10132;50.864;5.176;2023-10-09T11:33:03;9.63;;;6.18;;
19940;SDS011;10132;50.864;5.176;2023-10-09T11:35:11;13.68;;;6.68;;
19940;SDS011;10132;50.864;5.176;2023-10-09T11:37:23;13.15;;;6.65;;
19940;SDS011;10132;50.864;5.176;2023-10-09T11:39:39;12.10;;;6.47;;
19940;SDS011;10132;50.864;5.176;2023-10-09T11:41:59;8.95;;;5.88;;
19940;SDS011;10132;50.864;5.176;2023-10-09T11:44:04;10.90;;;6.68;;
19940;SDS011;10132;50.864;5.176;2023-10-09T11:46:09;10.52;;;6.38;;
19940;SDS011;10132;50.864;5.176;2023-10-09T11:48:17;13.05;;;6.82;;
19940;SDS011;10132;50.864;5.176;2023-10-09T11:50:41;11.57;;;6.13;;
19940;SDS011;10132;50.864;5.176;2023-10-09T11:52:55;12.23;;;6.75;;
19940;SDS011;10132;50.864;5.176;2023-10-09T11:55:09;12.77;;;7.07;;
19940;SDS011;10132;50.864;5.176;2023-10-09T11:57:15;12.88;;;6.30;;
19940;SDS011;10132;50.864;5.176;2023-10-09T11:59:17;11.63;;;6.47;;
19940;SDS011;10132;50.864;5.176;2023-10-09T12:01:20;10.27;;;6.57;;
19940;SDS011;10132;50.864;5.176;2023-10-09T12:03:23;10.32;;;6.53;;
19940;SDS011;10132;50.864;5.176;2023-10-09T12:05:28;10.50;;;6.13;;
19940;SDS011;10132;50.864;5.176;2023-10-09T12:07:30;8.90;;;5.72;;
19940;SDS011;10132;50.864;5.176;2023-10-09T12:09:33;12.35;;;6.22;;
19940;SDS011;10132;50.864;5.176;2023-10-09T12:11:34;11.98;;;6.15;;
19940;SDS011;10132;50.864;5.176;2023-10-09T12:13:36;10.27;;;5.75;;
19940;SDS011;10132;50.864;5.176;2023-10-09T12:15:39;13.15;;;6.47;;
19940;SDS011;10132;50.864;5.176;2023-10-09T12:17:40;14.00;;;6.60;;
19940;SDS011;10132;50.864;5.176;2023-10-09T12:19:44;11.40;;;6.22;;
19940;SDS011;10132;50.864;5.176;2023-10-09T12:21:48;14.20;;;6.50;;
19940;SDS011;10132;50.864;5.176;2023-10-09T12:23:50;15.32;;;6.75;;
19940;SDS011;10132;50.864;5.176;2023-10-09T12:25:58;14.07;;;6.43;;
19940;SDS011;10132;50.864;5.176;2023-10-09T12:28:01;11.38;;;6.45;;
19940;SDS011;10132;50.864;5.176;2023-10-09T12:30:04;10.70;;;6.05;;
19940;SDS011;10132;50.864;5.176;2023-10-09T12:32:07;10.80;;;6.45;;
19940;SDS011;10132;50.864;5.176;2023-10-09T12:34:10;9.32;;;6.07;;
19940;SDS011;10132;50.864;5.176;2023-10-09T12:36:16;7.68;;;5.50;;
19940;SDS011;10132;50.864;5.176;2023-10-09T12:38:19;9.65;;;6.18;;
19940;SDS011;10132;50.864;5.176;2023-10-09T12:40:23;8.15;;;5.68;;
19940;SDS011;10132;50.864;5.176;2023-10-09T12:42:26;8.55;;;5.57;;
19940;SDS011;10132;50.864;5.176;2023-10-09T12:44:28;9.93;;;6.13;;
19940;SDS011;10132;50.864;5.176;2023-10-09T12:46:30;10.30;;;6.28;;
19940;SDS011;10132;50.864;5.176;2023-10-09T12:48:37;10.07;;;5.78;;
19940;SDS011;10132;50.864;5.176;2023-10-09T12:50:46;10.55;;;6.32;;